Time;durP1;ratioP1;P1;durP2;ratioP2;P2;SDS_P1;SDS_P2;PMS_P1;PMS_P2;Temp;Humidity;BMP_temperature;BMP_pressure;BME280_temperature;BME280_humidity;BME280_pressure;Samples;Min_cycle;Max_cycle;Signal;HPM_P1;HPM_P2
2021/05/06 00:02:52;;;;;;;4.70;3.20;;;;;;;3.87;58.18;99633.94;10284996;28;20693;-73
2021/05/06 00:34:36;;;;;;;4.37;3.10;;;;;;;3.45;60.04;99618.94;10270190;28;20250;-72
2021/05/06 00:39:41;;;;;;;4.73;3.67;;;;;;;3.69;59.51;99613.88;10267501;28;21378;-72
2021/05/06 00:56:01;;;;;;;6.03;3.23;;;;;;;3.50;60.17;99608.88;10267986;28;20393;-72
2021/05/06 01:01:32;;;;;;;7.13;3.63;;;;;;;3.41;60.30;99614.81;10265450;28;20243;-72
2021/05/06 01:06:43;;;;;;;3.10;2.53;;;;;;;3.39;60.52;99614.03;10266412;28;20231;-72
2021/05/06 01:11:50;;;;;;;9.87;3.80;;;;;;;3.45;60.58;99605.66;10266943;28;20232;-72
2021/05/06 01:16:53;;;;;;;9.87;3.93;;;;;;;3.45;60.75;99609.19;10295508;28;20238;-72
2021/05/06 01:21:57;;;;;;;11.93;4.40;;;;;;;3.54;60.81;99613.06;10305409;28;20223;-72
2021/05/06 01:27:03;;;;;;;6.43;3.90;;;;;;;3.79;59.83;99612.34;10305862;28;20246;-72
2021/05/06 01:32:15;;;;;;;5.47;4.13;;;;;;;3.82;59.95;99601.50;10306532;28;21409;-72
2021/05/06 01:37:22;;;;;;;11.23;4.20;;;;;;;3.92;59.82;99597.31;10304029;28;20762;-72
2021/05/06 01:42:27;;;;;;;8.43;4.10;;;;;;;3.96;60.08;99600.59;10304358;28;20378;-72
2021/05/06 01:47:32;;;;;;;7.47;3.97;;;;;;;3.93;60.78;99598.16;10306572;28;20798;-72
2021/05/06 01:58:15;;;;;;;9.65;4.95;;;;;;;3.85;61.50;99589.81;10311821;28;20234;-73
2021/05/06 02:03:17;;;;;;;12.05;6.35;;;;;;;3.78;61.92;99591.16;10312860;28;20340;-72
2021/05/06 02:08:23;;;;;;;11.87;5.50;;;;;;;3.75;62.04;99583.41;10311173;28;20235;-73
2021/05/06 02:13:29;;;;;;;9.97;6.63;;;;;;;3.76;62.14;99572.69;10309473;28;20734;-72
2021/05/06 02:18:37;;;;;;;10.77;6.63;;;;;;;3.93;61.57;99566.25;10270952;28;20259;-73
2021/05/06 02:23:40;;;;;;;16.13;7.47;;;;;;;3.96;61.64;99560.75;10269686;28;20306;-72
2021/05/06 02:28:42;;;;;;;15.57;7.80;;;;;;;3.85;61.79;99560.59;10271024;28;20315;-72
2021/05/06 02:33:45;;;;;;;16.03;8.13;;;;;;;3.94;61.64;99555.50;10269676;28;20240;-72
2021/05/06 02:38:48;;;;;;;14.10;7.73;;;;;;;3.87;61.98;99540.94;10269946;28;20321;-72
2021/05/06 02:43:50;;;;;;;12.93;7.50;;;;;;;3.81;62.58;99530.72;10270072;28;20239;-72
2021/05/06 02:48:52;;;;;;;15.47;8.77;;;;;;;3.90;62.53;99532.78;10272214;28;20250;-72
2021/05/06 02:53:55;;;;;;;12.23;7.60;;;;;;;3.93;62.89;99534.38;10269746;28;20732;-72
2021/05/06 02:59:10;;;;;;;15.17;8.10;;;;;;;3.66;64.24;99537.91;10270491;28;20232;-72
2021/05/06 03:04:12;;;;;;;14.00;8.90;;;;;;;3.87;63.96;99538.28;10269524;28;20287;-72
2021/05/06 03:09:28;;;;;;;13.03;8.03;;;;;;;3.85;64.46;99537.53;10269030;28;21845;-72
2021/05/06 03:25:13;;;;;;;17.07;8.43;;;;;;;3.07;73.68;99547.91;10311013;28;20223;-72
2021/05/06 03:30:36;;;;;;;15.77;9.77;;;;;;;2.84;75.91;99544.06;10311013;28;20231;-72
2021/05/06 03:35:57;;;;;;;17.37;9.80;;;;;;;2.62;76.53;99541.88;10308823;28;20239;-73
2021/05/06 03:46:48;;;;;;;17.90;10.00;;;;;;;2.50;77.87;99538.16;10324003;28;20288;-72
2021/05/06 04:14:20;;;;;;;24.10;13.10;;;;;;;2.65;78.53;99530.22;10308589;28;20241;-72
2021/05/06 04:18:54;;;;;;;26.93;13.53;;;;;;;2.69;78.91;99529.06;10227736;28;20331;-72
2021/05/06 04:40:03;;;;;;;29.83;14.80;;;;;;;2.98;79.55;99525.47;10228040;28;20240;-72
2021/05/06 04:55:51;;;;;;;32.10;15.57;;;;;;;3.10;79.92;99529.16;10229784;28;20256;-71
2021/05/06 05:06:15;;;;;;;35.60;17.47;;;;;;;3.19;79.60;99535.69;10228785;28;20235;-72
2021/05/06 05:11:35;;;;;;;37.47;17.50;;;;;;;3.22;79.74;99532.81;10227414;28;20236;-71
2021/05/06 05:27:31;;;;;;;36.70;18.30;;;;;;;3.35;79.19;99540.88;10285571;28;20280;-72
2021/05/06 05:32:34;;;;;;;34.20;18.43;;;;;;;3.24;79.16;99538.91;10314139;28;20246;-72
2021/05/06 05:37:39;;;;;;;37.17;17.83;;;;;;;3.21;79.18;99544.38;10313591;28;20692;-71
2021/05/06 05:42:51;;;;;;;39.20;18.77;;;;;;;3.25;79.01;99551.22;10312586;28;20234;-71
2021/05/06 05:58:37;;;;;;;30.80;17.47;;;;;;;3.00;79.36;99559.88;10315962;28;20250;-71
2021/05/06 06:03:40;;;;;;;28.53;14.33;;;;;;;2.86;79.20;99563.38;10315509;28;20624;-71
2021/05/06 06:08:41;;;;;;;50.03;25.77;;;;;;;2.67;79.51;99558.38;10314470;28;20750;-71
2021/05/06 06:13:45;;;;;;;30.67;16.47;;;;;;;2.74;79.82;99564.13;10309036;28;20240;-70
2021/05/06 06:18:49;;;;;;;25.63;13.50;;;;;;;2.63;79.71;99562.13;10272342;28;20235;-70
2021/05/06 06:23:53;;;;;;;29.23;16.47;;;;;;;2.58;79.43;99564.25;10272560;28;20227;-70
2021/05/06 06:29:01;;;;;;;34.23;15.67;;;;;;;2.49;79.32;99568.25;10261893;28;20302;-71
2021/05/06 06:34:04;;;;;;;27.97;15.17;;;;;;;2.51;79.89;99570.81;10237041;28;21435;-71
2021/05/06 06:39:07;;;;;;;31.03;15.93;;;;;;;2.40;79.42;99574.97;10231957;28;20785;-71
2021/05/06 06:44:08;;;;;;;27.87;13.97;;;;;;;2.43;79.60;99575.72;10234979;28;20470;-71
2021/05/06 06:49:11;;;;;;;24.87;14.10;;;;;;;2.44;79.21;99575.66;10262130;28;20228;-70
2021/05/06 06:54:13;;;;;;;30.27;14.63;;;;;;;2.45;79.94;99572.03;10272209;28;20733;-70
2021/05/06 06:59:15;;;;;;;24.63;13.83;;;;;;;2.47;79.25;99580.75;10272967;28;20236;-70
2021/05/06 07:04:19;;;;;;;27.30;14.07;;;;;;;2.65;80.21;99578.81;10272799;28;20251;-70
2021/05/06 07:09:21;;;;;;;30.03;14.13;;;;;;;3.15;80.08;99577.47;10286199;28;20240;-71
2021/05/06 07:14:23;;;;;;;27.73;14.80;;;;;;;3.60;80.02;99575.50;10280969;28;20234;-71
2021/05/06 07:19:35;;;;;;;29.27;14.20;;;;;;;3.78;78.59;99578.72;10268245;28;20244;-70
2021/05/06 07:24:38;;;;;;;24.33;13.47;;;;;;;3.71;78.63;99583.59;10270164;28;20293;-70
2021/05/06 07:29:44;;;;;;;22.70;12.40;;;;;;;4.27;79.55;99580.78;10270236;28;20720;-70
2021/05/06 07:34:48;;;;;;;21.67;12.67;;;;;;;4.27;77.47;99574.63;10269919;28;20238;-70
2021/05/06 07:39:52;;;;;;;28.97;14.80;;;;;;;4.59;78.00;99580.41;10282903;28;20316;-70
2021/05/06 07:44:57;;;;;;;28.88;14.80;;;;;;;5.16;76.43;99581.78;10247560;28;20220;-70
2021/05/06 07:50:01;;;;;;;23.75;13.63;;;;;;;5.27;75.25;99580.06;10242647;28;20244;-72
2021/05/06 07:55:08;;;;;;;24.35;12.90;;;;;;;5.31;75.45;99586.00;10244088;28;20447;-70
2021/05/06 08:00:13;;;;;;;18.58;11.85;;;;;;;4.93;75.00;99586.03;10231051;28;20585;-71
2021/05/06 08:05:18;;;;;;;22.30;10.35;;;;;;;4.97;74.41;99588.38;10244734;28;20736;-71
2021/05/06 08:10:22;;;;;;;18.75;10.75;;;;;;;5.24;73.23;99592.75;10266048;28;20679;-70
2021/05/06 08:15:24;;;;;;;14.45;8.50;;;;;;;5.54;71.16;99578.16;10301249;28;20243;-71
2021/05/06 08:20:27;;;;;;;18.55;10.98;;;;;;;5.44;71.18;99591.31;10311018;28;20242;-71
2021/05/06 08:25:29;;;;;;;17.15;9.85;;;;;;;5.88;70.51;99571.22;10308164;28;20242;-71
2021/05/06 08:30:31;;;;;;;13.68;9.20;;;;;;;6.29;69.31;99578.75;10250528;28;20263;-71
2021/05/06 08:35:34;;;;;;;17.63;10.50;;;;;;;8.02;72.78;99585.53;10223274;28;20239;-71
2021/05/06 08:40:37;;;;;;;14.80;8.80;;;;;;;8.15;68.86;99580.00;10227068;28;20457;-71
2021/05/06 08:45:44;;;;;;;17.67;8.68;;;;;;;8.13;71.36;99584.63;10228154;28;20232;-70
2021/05/06 08:50:48;;;;;;;19.02;8.60;;;;;;;8.28;66.87;99586.03;10229912;28;20235;-71
2021/05/06 08:55:52;;;;;;;11.38;7.65;;;;;;;9.66;72.24;99591.97;10226422;28;21167;-71
2021/05/06 09:00:54;;;;;;;10.20;6.60;;;;;;;8.79;58.74;99585.25;10229716;28;20247;-71
2021/05/06 09:06:12;;;;;;;8.05;6.72;;;;;;;9.31;66.90;99589.75;10235043;28;20236;-71
2021/05/06 09:11:14;;;;;;;10.90;7.18;;;;;;;8.95;61.69;99589.31;10237099;28;20392;-70
2021/05/06 09:16:16;;;;;;;12.55;6.32;;;;;;;8.09;62.33;99589.41;10257371;28;20282;-70
2021/05/06 09:21:31;;;;;;;9.60;6.28;;;;;;;7.51;63.03;99591.50;10275347;28;20262;-71
2021/05/06 09:26:39;;;;;;;11.27;6.72;;;;;;;7.11;62.28;99600.03;10274920;28;20247;-70
2021/05/06 09:31:42;;;;;;;9.68;6.20;;;;;;;8.76;64.97;99598.09;10250286;28;20275;-70
2021/05/06 09:36:45;;;;;;;10.07;6.85;;;;;;;8.97;60.98;99588.19;10227654;28;20626;-70
2021/05/06 09:41:48;;;;;;;8.73;6.80;;;;;;;8.00;61.02;99590.16;10232138;28;20598;-71
2021/05/06 09:46:56;;;;;;;11.68;7.38;;;;;;;9.04;60.39;99592.03;10237296;28;20765;-71
2021/05/06 09:52:00;;;;;;;10.20;6.20;;;;;;;9.60;52.78;99584.44;10232640;28;20263;-71
2021/05/06 09:57:04;;;;;;;9.10;7.00;;;;;;;8.58;58.87;99590.66;10231699;28;20263;-70
2021/05/06 10:02:09;;;;;;;10.38;6.13;;;;;;;8.79;55.35;99582.59;10233585;28;20236;-71
2021/05/06 10:07:15;;;;;;;9.45;6.65;;;;;;;9.10;53.25;99584.44;10246668;28;20272;-71
2021/05/06 10:12:18;;;;;;;6.50;5.35;;;;;;;8.47;52.89;99565.75;10232276;28;20244;-71
2021/05/06 10:17:22;;;;;;;6.80;5.32;;;;;;;8.65;52.46;99566.03;10295771;28;20311;-71
2021/05/06 10:22:28;;;;;;;7.53;5.10;;;;;;;9.08;49.64;99567.63;10310937;28;20239;-71
2021/05/06 10:27:32;;;;;;;8.95;5.50;;;;;;;10.50;46.84;99561.94;10313080;28;20246;-71
2021/05/06 10:32:36;;;;;;;6.80;4.85;;;;;;;8.75;49.87;99572.25;10312742;28;20374;-70
2021/05/06 10:37:41;;;;;;;9.25;5.53;;;;;;;8.65;51.25;99574.06;10313793;28;20230;-71
2021/05/06 10:42:43;;;;;;;7.85;4.97;;;;;;;9.04;49.12;99575.94;10297768;28;20713;-71
2021/05/06 10:47:53;;;;;;;7.45;4.47;;;;;;;10.77;44.08;99562.00;10270521;28;20717;-71
2021/05/06 10:52:56;;;;;;;6.40;3.97;;;;;;;11.02;40.99;99560.50;10272741;28;20244;-71
2021/05/06 10:57:58;;;;;;;4.55;2.97;;;;;;;12.31;36.77;99545.19;10271228;28;20914;-70
2021/05/06 11:03:04;;;;;;;4.50;3.42;;;;;;;11.94;39.30;99545.31;10272218;28;21421;-70
2021/05/06 11:08:26;;;;;;;5.05;4.25;;;;;;;13.33;37.57;99553.50;10274495;28;20239;-70
2021/05/06 11:13:49;;;;;;;7.78;4.28;;;;;;;12.53;39.47;99540.25;10273131;28;20266;-71
2021/05/06 11:18:51;;;;;;;5.90;3.75;;;;;;;12.29;39.73;99541.78;10310766;28;20618;-71
2021/05/06 11:23:54;;;;;;;5.38;4.03;;;;;;;11.24;42.95;99542.34;10310297;28;20242;-71
2021/05/06 11:28:56;;;;;;;5.18;4.22;;;;;;;10.71;41.23;99533.06;10308997;28;21001;-71
2021/05/06 11:34:32;;;;;;;5.43;4.47;;;;;;;10.12;43.57;99520.72;10310525;28;20246;-71
2021/05/06 11:39:35;;;;;;;6.00;4.40;;;;;;;10.34;44.36;99511.53;10308111;28;20242;-71
2021/05/06 11:44:37;;;;;;;6.93;4.95;;;;;;;11.88;42.89;99508.25;10307981;28;20239;-71
2021/05/06 11:49:39;;;;;;;4.22;3.83;;;;;;;12.22;42.81;99494.91;10309155;28;20743;-71
2021/05/06 11:54:45;;;;;;;6.32;4.72;;;;;;;13.64;38.87;99481.81;10311288;28;20238;-71
2021/05/06 11:59:47;;;;;;;7.05;4.97;;;;;;;13.55;36.56;99482.81;10311279;28;20238;-71
2021/05/06 12:04:52;;;;;;;6.60;5.25;;;;;;;13.05;37.18;99476.41;10309961;28;20242;-71
2021/05/06 12:10:07;;;;;;;6.75;4.78;;;;;;;10.68;40.80;99468.03;10309669;28;20247;-72
2021/05/06 12:15:10;;;;;;;7.07;5.07;;;;;;;11.18;41.65;99456.94;10295332;28;20262;-71
2021/05/06 12:20:12;;;;;;;6.38;5.30;;;;;;;11.28;41.55;99458.56;10268685;28;20236;-71
2021/05/06 12:25:15;;;;;;;8.45;5.20;;;;;;;12.47;40.11;99450.16;10270089;28;20231;-71
2021/05/06 12:30:18;;;;;;;8.43;5.47;;;;;;;13.85;35.92;99438.16;10267084;28;20242;-71
2021/05/06 12:35:20;;;;;;;6.35;4.70;;;;;;;12.66;38.92;99450.94;10264653;28;20236;-71
2021/05/06 12:40:27;;;;;;;6.13;5.13;;;;;;;12.28;38.37;99434.19;10267811;28;20247;-71
2021/05/06 12:45:31;;;;;;;6.50;5.30;;;;;;;11.83;39.76;99424.47;10266932;28;20240;-71
2021/05/06 12:50:36;;;;;;;5.88;5.20;;;;;;;10.86;41.56;99430.47;10267053;28;20259;-71
2021/05/06 12:55:40;;;;;;;10.02;6.20;;;;;;;10.04;43.80;99442.78;10267271;28;20238;-71
2021/05/06 13:00:43;;;;;;;6.57;4.45;;;;;;;9.25;50.59;99444.59;10266166;28;20246;-71
2021/05/06 13:05:47;;;;;;;9.77;5.97;;;;;;;7.06;56.06;99482.03;10265400;28;20246;-71
2021/05/06 13:10:50;;;;;;;8.48;5.22;;;;;;;8.52;65.78;99448.44;10267878;28;20239;-71
2021/05/06 13:15:53;;;;;;;6.57;4.97;;;;;;;9.57;63.75;99442.63;10286717;28;21533;-71
2021/05/06 13:20:55;;;;;;;5.60;4.20;;;;;;;11.82;63.10;99433.50;10307974;28;20231;-71
2021/05/06 13:26:00;;;;;;;6.22;4.72;;;;;;;11.61;58.83;99429.31;10286501;28;20227;-71
2021/05/06 13:31:07;;;;;;;8.05;5.03;;;;;;;12.45;50.94;99419.00;10234363;28;20242;-71
2021/05/06 13:36:10;;;;;;;7.22;4.93;;;;;;;14.52;50.46;99415.47;10271167;28;20712;-71
2021/05/06 13:41:13;;;;;;;9.18;5.63;;;;;;;13.98;39.90;99409.81;10266593;28;20633;-71
2021/05/06 13:46:16;;;;;;;8.02;5.38;;;;;;;13.30;41.90;99400.94;10266969;28;20239;-71
2021/05/06 13:51:19;;;;;;;6.60;5.47;;;;;;;13.74;37.75;99399.84;10272701;28;20604;-71
2021/05/06 13:56:22;;;;;;;6.75;5.63;;;;;;;15.17;37.33;99393.56;10271599;28;20283;-71
2021/05/06 14:01:24;;;;;;;8.02;5.90;;;;;;;15.11;37.69;99382.59;10262017;28;20248;-71
2021/05/06 14:06:26;;;;;;;7.90;6.18;;;;;;;14.93;37.76;99374.75;10286877;28;20246;-71
2021/05/06 14:11:29;;;;;;;7.75;5.90;;;;;;;13.55;37.19;99365.94;10273049;28;20239;-71
2021/05/06 14:16:40;;;;;;;9.18;6.80;;;;;;;12.33;40.91;99373.50;10282519;28;20236;-71
2021/05/06 14:21:45;;;;;;;9.88;7.03;;;;;;;13.57;39.15;99355.84;10250340;28;20321;-71
2021/05/06 14:26:49;;;;;;;8.70;6.30;;;;;;;15.45;35.42;99347.06;10252403;28;20235;-70
2021/05/06 14:31:51;;;;;;;9.52;6.50;;;;;;;14.78;35.95;99337.69;10246964;28;20243;-70
2021/05/06 14:36:53;;;;;;;9.43;6.22;;;;;;;14.73;35.46;99331.13;10230887;28;20790;-70
2021/05/06 14:41:56;;;;;;;7.50;6.15;;;;;;;14.70;35.09;99318.78;10232474;28;20236;-71
2021/05/06 14:46:57;;;;;;;8.50;6.70;;;;;;;15.52;33.27;99318.25;10229982;28;20244;-71
2021/05/06 14:51:59;;;;;;;8.25;6.40;;;;;;;15.53;34.16;99311.00;10231708;28;20283;-70
2021/05/06 14:57:05;;;;;;;6.72;5.28;;;;;;;14.59;33.58;99295.72;10249555;28;20227;-71
2021/05/06 15:02:07;;;;;;;7.28;5.68;;;;;;;14.04;35.11;99290.31;10271110;28;20234;-71
2021/05/06 15:07:09;;;;;;;7.85;6.28;;;;;;;13.57;35.50;99300.00;10254903;28;20240;-70
2021/05/06 15:12:12;;;;;;;8.57;6.43;;;;;;;13.87;36.02;99287.66;10250129;28;20764;-71
2021/05/06 15:17:14;;;;;;;9.13;6.22;;;;;;;13.98;36.16;99282.91;10261184;28;20310;-71
2021/05/06 15:22:17;;;;;;;8.32;5.93;;;;;;;14.10;36.79;99281.53;10247524;28;20235;-71
2021/05/06 15:27:27;;;;;;;9.52;6.70;;;;;;;14.18;36.11;99276.13;10262212;28;20250;-71
2021/05/06 15:32:29;;;;;;;10.50;7.05;;;;;;;13.81;36.87;99266.75;10269931;28;20570;-71
2021/05/06 15:37:31;;;;;;;8.75;7.30;;;;;;;13.27;38.80;99271.84;10264934;28;20706;-70
2021/05/06 15:42:34;;;;;;;12.13;7.90;;;;;;;12.77;39.26;99267.44;10246928;28;20263;-71
2021/05/06 15:47:36;;;;;;;11.05;7.90;;;;;;;12.28;39.70;99270.81;10228874;28;20236;-71
2021/05/06 15:52:39;;;;;;;11.10;8.38;;;;;;;11.79;40.07;99267.03;10230048;28;20386;-70
2021/05/06 15:57:43;;;;;;;11.10;7.82;;;;;;;11.62;40.70;99261.53;10283971;28;20250;-70
2021/05/06 16:02:47;;;;;;;10.52;7.30;;;;;;;11.57;41.11;99255.78;10250495;28;20246;-71
2021/05/06 16:07:50;;;;;;;11.32;7.65;;;;;;;11.76;41.30;99248.50;10268235;28;20709;-71
2021/05/06 16:12:53;;;;;;;10.50;7.50;;;;;;;12.11;41.47;99239.44;10268670;28;20602;-71
2021/05/06 16:17:55;;;;;;;10.50;7.75;;;;;;;12.05;40.52;99237.41;10306139;28;20246;-71
2021/05/06 16:22:58;;;;;;;10.95;7.78;;;;;;;11.98;40.59;99229.13;10254853;28;20621;-71
2021/05/06 16:28:01;;;;;;;10.95;7.85;;;;;;;12.17;39.68;99228.00;10252424;28;20236;-71
2021/05/06 16:33:06;;;;;;;11.13;7.93;;;;;;;12.58;39.09;99223.59;10265971;28;20322;-71
2021/05/06 16:38:10;;;;;;;10.88;8.35;;;;;;;12.47;39.59;99226.63;10261794;28;20244;-71
2021/05/06 16:43:30;;;;;;;11.27;8.20;;;;;;;12.08;39.15;99234.38;10236307;28;20239;-71
2021/05/06 16:48:34;;;;;;;9.75;7.60;;;;;;;11.82;39.87;99231.72;10229067;28;20935;-71
2021/05/06 16:53:36;;;;;;;11.98;8.10;;;;;;;11.72;40.41;99232.69;10230801;28;20335;-71
2021/05/06 16:58:39;;;;;;;10.43;7.28;;;;;;;11.71;41.21;99228.34;10226030;28;21378;-71
2021/05/06 17:03:41;;;;;;;11.27;8.18;;;;;;;11.72;40.52;99230.00;10225704;28;20240;-70
2021/05/06 17:08:42;;;;;;;9.35;8.02;;;;;;;11.52;39.74;99236.63;10226833;28;20236;-71
2021/05/06 17:13:45;;;;;;;10.43;8.70;;;;;;;11.35;40.88;99232.94;10236720;28;20235;-70
2021/05/06 17:18:47;;;;;;;12.00;8.80;;;;;;;11.25;41.82;99238.44;10308432;28;20250;-71
2021/05/06 17:23:50;;;;;;;11.20;7.82;;;;;;;11.22;41.88;99230.69;10310968;28;20238;-71
2021/05/06 17:28:52;;;;;;;11.20;8.52;;;;;;;11.14;41.47;99230.63;10278816;28;20256;-71
2021/05/06 17:33:54;;;;;;;12.55;8.27;;;;;;;11.05;41.10;99227.00;10233110;28;20236;-71
2021/05/06 17:38:59;;;;;;;11.23;8.40;;;;;;;11.06;41.68;99238.59;10250114;28;20229;-71
2021/05/06 17:44:02;;;;;;;10.77;8.13;;;;;;;10.99;41.33;99235.66;10234656;28;20774;-70
2021/05/06 17:49:04;;;;;;;9.50;7.88;;;;;;;10.93;41.86;99238.16;10234311;28;20375;-70
2021/05/06 17:54:10;;;;;;;8.63;6.72;;;;;;;10.77;42.74;99234.31;10252933;28;20354;-71
2021/05/06 17:59:14;;;;;;;9.20;6.22;;;;;;;10.41;42.89;99241.50;10253502;28;21796;-71
2021/05/06 18:04:15;;;;;;;8.30;6.47;;;;;;;10.35;43.65;99234.88;10251644;28;20325;-70
2021/05/06 18:09:25;;;;;;;7.53;6.15;;;;;;;10.28;42.96;99239.16;10251201;28;20894;-70
2021/05/06 18:14:27;;;;;;;10.70;7.50;;;;;;;10.19;43.64;99239.22;10255882;28;20241;-70
2021/05/06 18:19:30;;;;;;;10.23;7.35;;;;;;;9.99;44.08;99233.13;10273088;28;20232;-70
2021/05/06 18:24:32;;;;;;;8.88;7.25;;;;;;;9.83;44.28;99249.81;10271863;28;20235;-70
2021/05/06 18:29:35;;;;;;;10.50;7.57;;;;;;;9.61;44.98;99257.22;10272552;28;21401;-71
2021/05/06 18:34:37;;;;;;;11.70;7.90;;;;;;;9.48;45.81;99256.69;10271729;28;21051;-70
2021/05/06 18:39:39;;;;;;;10.68;7.53;;;;;;;8.64;54.04;99264.47;10284845;28;21376;-70
2021/05/06 18:44:42;;;;;;;11.90;6.60;;;;;;;8.98;53.68;99273.81;10247294;28;20263;-70
2021/05/06 18:49:43;;;;;;;14.10;8.18;;;;;;;8.81;54.88;99279.88;10264441;28;20235;-70
2021/05/06 18:54:46;;;;;;;11.15;7.85;;;;;;;8.65;55.42;99277.75;10259683;28;20231;-70
2021/05/06 18:59:48;;;;;;;11.48;7.97;;;;;;;8.50;56.13;99292.50;10247523;28;20771;-71
2021/05/06 19:04:50;;;;;;;12.90;8.48;;;;;;;8.13;58.21;99301.94;10265445;28;20238;-70
2021/05/06 19:09:52;;;;;;;12.75;8.60;;;;;;;7.94;59.15;99302.69;10252589;28;20247;-71
2021/05/06 19:14:55;;;;;;;13.82;8.27;;;;;;;7.83;60.13;99316.16;10252144;28;20250;-70
2021/05/06 19:19:57;;;;;;;14.43;8.82;;;;;;;7.90;60.49;99316.50;10238564;28;20244;-71
2021/05/06 19:24:59;;;;;;;16.23;9.45;;;;;;;7.87;60.73;99330.97;10230724;28;20247;-71
2021/05/06 19:30:03;;;;;;;14.80;9.02;;;;;;;7.87;61.08;99327.44;10228666;28;20248;-70
2021/05/06 19:35:06;;;;;;;14.65;9.10;;;;;;;7.70;61.30;99323.53;10228533;28;20239;-71
2021/05/06 19:40:09;;;;;;;15.07;9.15;;;;;;;7.58;61.35;99330.78;10230493;28;20588;-71
2021/05/06 19:45:17;;;;;;;14.60;8.63;;;;;;;7.64;61.24;99337.44;10229235;28;21942;-71
2021/05/06 19:50:19;;;;;;;15.68;9.77;;;;;;;7.65;61.36;99342.66;10260966;28;20248;-71
2021/05/06 19:55:21;;;;;;;12.20;8.50;;;;;;;7.65;61.30;99341.78;10264802;28;20324;-71
2021/05/06 20:00:24;;;;;;;13.30;8.85;;;;;;;7.66;61.24;99347.03;10263724;28;20242;-71
2021/05/06 20:05:27;;;;;;;13.65;9.48;;;;;;;7.63;61.36;99352.63;10284175;28;20560;-71
2021/05/06 20:10:29;;;;;;;14.73;8.98;;;;;;;7.72;61.45;99359.00;10267632;28;20235;-71
2021/05/06 20:15:32;;;;;;;16.13;9.75;;;;;;;7.78;61.33;99350.47;10287234;28;20239;-70
2021/05/06 20:20:37;;;;;;;14.07;9.27;;;;;;;7.76;61.04;99371.13;10308938;28;20641;-71
2021/05/06 20:25:41;;;;;;;15.00;9.65;;;;;;;7.52;64.26;99370.56;10302931;28;21363;-71
2021/05/06 20:30:43;;;;;;;15.60;9.85;;;;;;;6.99;65.91;99368.69;10229784;28;20248;-72
2021/05/06 20:35:45;;;;;;;18.48;10.02;;;;;;;6.27;68.65;99386.00;10227181;28;20247;-71
2021/05/06 20:40:48;;;;;;;16.13;10.45;;;;;;;5.98;71.47;99406.06;10228795;28;20256;-72
2021/05/06 20:45:50;;;;;;;20.15;11.60;;;;;;;5.93;73.01;99406.47;10227385;28;20236;-71
2021/05/06 20:50:52;;;;;;;20.13;11.30;;;;;;;5.92;73.63;99410.94;10227297;28;20239;-71
2021/05/06 20:55:54;;;;;;;21.17;11.68;;;;;;;5.07;81.08;99428.88;10228188;28;20236;-71
2021/05/06 21:00:59;;;;;;;19.83;12.30;;;;;;;4.94;84.66;99422.75;10241214;28;20243;-71
2021/05/06 21:06:00;;;;;;;20.35;12.35;;;;;;;4.89;83.87;99422.22;10272603;28;20227;-71
2021/05/06 21:11:02;;;;;;;20.60;12.68;;;;;;;4.86;82.57;99423.31;10269773;28;20246;-71
2021/05/06 21:16:05;;;;;;;25.30;13.73;;;;;;;5.11;80.63;99410.88;10295608;28;20632;-72
2021/05/06 21:21:07;;;;;;;26.58;13.73;;;;;;;5.31;80.52;99404.06;10314356;28;20234;-71
2021/05/06 21:26:10;;;;;;;25.92;14.23;;;;;;;5.22;80.13;99379.84;10313382;28;20917;-71
2021/05/06 21:31:13;;;;;;;22.90;12.68;;;;;;;5.15;80.62;99380.41;10314416;28;20277;-72
2021/05/06 21:36:15;;;;;;;23.25;13.25;;;;;;;5.12;80.80;99388.63;10314173;28;20235;-72
2021/05/06 21:41:17;;;;;;;24.98;13.65;;;;;;;5.00;80.44;99385.91;10313877;28;21360;-72
2021/05/06 21:46:20;;;;;;;27.43;14.80;;;;;;;5.11;80.95;99395.75;10312109;28;20310;-72
2021/05/06 21:51:24;;;;;;;24.45;14.95;;;;;;;5.31;81.11;99383.63;10313168;28;20231;-72
2021/05/06 21:56:26;;;;;;;31.98;16.25;;;;;;;5.49;81.10;99378.72;10312559;28;20262;-71
2021/05/06 22:01:33;;;;;;;27.08;14.75;;;;;;;5.53;80.69;99380.19;10244411;28;20874;-72
2021/05/06 22:06:35;;;;;;;27.67;14.38;;;;;;;5.49;81.06;99378.72;10259801;28;20733;-71
2021/05/06 22:11:37;;;;;;;34.35;17.08;;;;;;;5.49;80.96;99368.09;10250232;28;20279;-71
2021/05/06 22:16:40;;;;;;;36.60;17.33;;;;;;;5.33;80.87;99344.41;10251838;28;20238;-71
2021/05/06 22:21:42;;;;;;;30.65;15.82;;;;;;;5.20;80.68;99341.81;10251409;28;20244;-71
2021/05/06 22:26:44;;;;;;;31.92;15.25;;;;;;;5.31;80.69;99349.00;10265035;28;20583;-72
2021/05/06 22:31:46;;;;;;;32.63;16.20;;;;;;;5.42;80.87;99367.69;10231727;28;20247;-72
2021/05/06 22:36:48;;;;;;;34.40;15.70;;;;;;;5.57;80.95;99368.34;10230938;28;20244;-70
2021/05/06 22:41:50;;;;;;;33.17;16.55;;;;;;;5.62;80.75;99375.97;10231794;28;20743;-71
2021/05/06 22:46:53;;;;;;;30.92;16.02;;;;;;;5.58;80.58;99390.50;10229750;28;20232;-70
2021/05/06 22:51:55;;;;;;;31.48;16.80;;;;;;;5.37;81.14;99383.16;10229815;28;20259;-70
2021/05/06 22:56:57;;;;;;;33.45;17.02;;;;;;;5.48;80.78;99385.00;10230693;28;20263;-71
2021/05/06 23:02:00;;;;;;;34.15;17.48;;;;;;;5.54;80.82;99383.69;10229511;28;20228;-70
2021/05/06 23:07:02;;;;;;;34.30;17.92;;;;;;;5.50;80.83;99391.06;10230532;28;20244;-71
2021/05/06 23:12:05;;;;;;;38.28;18.42;;;;;;;5.57;80.91;99394.97;10230515;28;20306;-71
2021/05/06 23:17:07;;;;;;;39.45;19.17;;;;;;;5.60;80.77;99391.25;10291209;28;20697;-70
2021/05/06 23:22:10;;;;;;;37.95;19.35;;;;;;;5.62;80.25;99391.94;10310551;28;20234;-70
2021/05/06 23:27:12;;;;;;;31.52;17.10;;;;;;;5.28;79.95;99390.03;10309762;28;20227;-71
2021/05/06 23:32:14;;;;;;;31.25;16.63;;;;;;;5.02;80.31;99399.97;10311338;28;20257;-70
2021/05/06 23:37:17;;;;;;;34.92;17.38;;;;;;;5.05;81.05;99402.41;10309922;28;20262;-70
2021/05/06 23:42:19;;;;;;;36.65;17.85;;;;;;;5.17;80.72;99407.78;10323701;28;20258;-70
2021/05/06 23:47:23;;;;;;;33.28;17.27;;;;;;;5.06;80.60;99409.41;10309266;28;20243;-71
2021/05/06 23:52:24;;;;;;;36.85;17.50;;;;;;;4.68;80.67;99422.81;10311107;28;20243;-70
2021/05/06 23:57:26;;;;;;;33.75;17.20;;;;;;;4.18;81.61;99424.59;10308972;28;20243;-71
